createdAt,value
2023-06-07T00:01:09.516Z,26.50
2023-06-07T00:03:42.555Z,23.00
2023-06-07T00:06:15.499Z,30.00
2023-06-07T00:08:47.551Z,31.50
2023-06-07T00:11:21.948Z,23.30
2023-06-07T00:13:56.789Z,28.90
2023-06-07T00:16:28.822Z,27.50
2023-06-07T00:19:03.248Z,19.80
2023-06-07T00:21:35.400Z,32.10
2023-06-07T00:24:08.290Z,17.30
2023-06-07T00:26:41.474Z,22.50
2023-06-07T00:29:14.910Z,17.20
2023-06-07T00:31:47.062Z,16.80
2023-06-07T00:34:19.260Z,17.80
2023-06-07T00:36:51.480Z,14.20
2023-06-07T00:39:25.935Z,15.80
2023-06-07T00:41:58.064Z,14.10
2023-06-07T00:44:30.095Z,12.00
2023-06-07T00:47:02.223Z,13.90
2023-06-07T00:49:34.198Z,14.20
2023-06-07T00:52:07.688Z,23.90
2023-06-07T00:54:39.911Z,12.80
2023-06-07T00:57:11.875Z,17.00
2023-06-07T00:59:43.910Z,16.60
2023-06-07T01:02:16.775Z,18.00
2023-06-07T01:04:51.376Z,18.10
2023-06-07T01:07:26.357Z,15.70
2023-06-07T01:09:58.475Z,21.20
2023-06-07T01:12:31.863Z,16.90
2023-06-07T01:15:04.713Z,27.30
2023-06-07T01:17:42.575Z,24.50
2023-06-07T01:20:16.117Z,19.70
2023-06-07T01:22:50.442Z,13.80
2023-06-07T01:25:23.175Z,15.00
2023-06-07T01:27:58.492Z,18.60
2023-06-07T01:30:33.008Z,26.70
2023-06-07T01:33:05.987Z,39.40
2023-06-07T01:35:37.996Z,32.20
2023-06-07T01:38:10.006Z,24.90
2023-06-07T01:40:42.554Z,14.80
2023-06-07T01:43:14.888Z,21.70
2023-06-07T01:45:48.018Z,24.60
2023-06-07T01:48:20.280Z,26.70
2023-06-07T01:50:52.359Z,30.60
2023-06-07T01:53:24.399Z,34.60
2023-06-07T01:55:59.187Z,39.40
2023-06-07T01:58:34.049Z,25.60
2023-06-07T02:01:12.094Z,23.80
2023-06-07T02:03:46.065Z,17.60
2023-06-07T02:06:19.375Z,22.00
2023-06-07T02:08:54.265Z,28.40
2023-06-07T02:11:27.289Z,21.70
2023-06-07T02:13:59.787Z,20.30
2023-06-07T02:16:36.951Z,18.90
2023-06-07T02:19:09.345Z,22.70
2023-06-07T02:21:51.079Z,17.30
2023-06-07T02:24:23.059Z,19.40
2023-06-07T02:26:57.055Z,18.10
2023-06-07T02:29:29.167Z,23.90
2023-06-07T02:32:02.242Z,19.80
2023-06-07T02:34:34.774Z,26.70
2023-06-07T02:37:07.595Z,21.80
2023-06-07T02:39:39.665Z,33.30
2023-06-07T02:42:12.343Z,15.70
2023-06-07T02:44:44.355Z,19.50
2023-06-07T02:47:16.473Z,23.80
2023-06-07T02:49:49.342Z,28.50
2023-06-07T02:52:21.392Z,24.60
2023-06-07T02:54:53.469Z,21.00
2023-06-07T02:57:25.645Z,15.40
2023-06-07T02:59:57.863Z,16.30
2023-06-07T03:02:35.383Z,16.00
2023-06-07T03:05:08.563Z,18.80
2023-06-07T03:07:42.006Z,21.00
2023-06-07T03:10:14.948Z,18.30
2023-06-07T03:12:47.589Z,26.20
2023-06-07T03:15:19.751Z,16.00
2023-06-07T03:17:52.064Z,17.90
2023-06-07T03:20:26.415Z,12.80
2023-06-07T03:22:59.125Z,22.90
2023-06-07T03:25:31.540Z,11.40
2023-06-07T03:28:04.198Z,18.80
2023-06-07T03:30:41.721Z,11.30
2023-06-07T03:33:14.319Z,8.80
2023-06-07T03:35:46.965Z,15.10
2023-06-07T03:38:22.756Z,12.00
2023-06-07T03:40:56.720Z,12.20
2023-06-07T03:43:29.568Z,9.60
2023-06-07T03:46:01.716Z,8.60
2023-06-07T03:48:34.384Z,8.30
2023-06-07T03:51:07.215Z,14.70
2023-06-07T03:53:40.429Z,15.50
2023-06-07T03:56:12.484Z,12.60
2023-06-07T03:58:46.641Z,11.60
2023-06-07T04:01:21.144Z,14.60
2023-06-07T04:03:53.547Z,10.30
2023-06-07T04:06:26.657Z,13.20
2023-06-07T04:09:00.819Z,15.30
2023-06-07T04:11:33.002Z,11.50
2023-06-07T04:14:05.138Z,23.70
2023-06-07T04:16:37.701Z,28.80
2023-06-07T04:19:09.896Z,21.20
2023-06-07T04:21:42.812Z,29.50
2023-06-07T04:24:16.573Z,25.50
2023-06-07T04:26:51.292Z,19.40
2023-06-07T04:29:27.217Z,23.00
2023-06-07T04:31:59.848Z,19.50
2023-06-07T04:34:34.552Z,12.20
2023-06-07T04:37:07.037Z,17.10
2023-06-07T04:39:42.393Z,17.30
2023-06-07T04:42:18.046Z,16.80
2023-06-07T04:44:51.779Z,22.50
2023-06-07T04:47:26.528Z,22.40
2023-06-07T04:50:00.753Z,21.80
2023-06-07T04:52:34.103Z,22.20
2023-06-07T04:55:09.108Z,20.10
2023-06-07T04:57:42.054Z,22.50
2023-06-07T05:00:18.698Z,23.90
2023-06-07T05:02:51.878Z,14.60
2023-06-07T05:05:24.887Z,14.70
2023-06-07T05:07:57.556Z,13.90
2023-06-07T05:10:29.672Z,18.40
2023-06-07T05:13:04.144Z,9.90
2023-06-07T05:15:36.246Z,21.20
2023-06-07T05:18:09.130Z,12.40
2023-06-07T05:20:41.382Z,16.50
2023-06-07T05:23:17.920Z,14.10
2023-06-07T05:25:53.176Z,20.60
2023-06-07T05:28:25.515Z,15.80
2023-06-07T05:31:00.597Z,13.20
2023-06-07T05:33:34.455Z,16.90
2023-06-07T05:36:07.534Z,12.50
2023-06-07T05:38:40.226Z,11.30
2023-06-07T05:41:12.546Z,16.40
2023-06-07T05:43:45.082Z,19.30
2023-06-07T05:46:17.308Z,18.50
2023-06-07T05:48:51.606Z,16.30
2023-06-07T05:51:25.960Z,19.70
2023-06-07T05:53:58.042Z,18.20
2023-06-07T05:56:30.480Z,24.10
2023-06-07T05:59:03.021Z,19.10
2023-06-07T06:01:36.332Z,13.20
2023-06-07T06:04:08.645Z,18.90
2023-06-07T06:06:40.743Z,10.10
2023-06-07T06:09:13.971Z,11.60
2023-06-07T06:11:46.681Z,21.00
2023-06-07T06:14:19.055Z,23.30
2023-06-07T06:16:51.219Z,18.00
2023-06-07T06:19:23.628Z,24.30
2023-06-07T06:21:55.951Z,24.70
2023-06-07T06:24:28.445Z,15.00
2023-06-07T06:27:01.018Z,12.70
2023-06-07T06:29:33.452Z,13.50
2023-06-07T06:32:06.149Z,13.80
2023-06-07T06:34:38.462Z,11.50
2023-06-07T06:37:10.652Z,17.40
2023-06-07T06:39:43.339Z,9.10
2023-06-07T06:42:16.691Z,10.40
2023-06-07T06:45:14.635Z,5.90
2023-06-07T06:47:46.712Z,9.80
2023-06-07T06:50:31.981Z,4.90
2023-06-07T06:53:05.686Z,4.50
2023-06-07T06:55:37.709Z,5.70
2023-06-07T06:58:10.257Z,10.00
2023-06-07T07:00:43.133Z,3.80
2023-06-07T07:03:16.007Z,6.80
2023-06-07T07:05:48.448Z,4.20
2023-06-07T07:08:21.303Z,5.10
2023-06-07T07:10:53.981Z,11.20
2023-06-07T07:13:26.085Z,3.90
2023-06-07T07:15:58.252Z,14.10
2023-06-07T07:18:30.402Z,8.40
2023-06-07T07:21:02.727Z,4.10
2023-06-07T07:23:34.874Z,9.50
2023-06-07T07:26:07.361Z,5.30
2023-06-07T07:28:39.691Z,3.50
2023-06-07T07:31:12.398Z,7.60
2023-06-07T07:33:44.548Z,5.50
2023-06-07T07:36:18.987Z,5.70
2023-06-07T07:38:53.244Z,9.80
2023-06-07T07:41:25.659Z,9.90
2023-06-07T07:43:58.278Z,8.30
2023-06-07T07:46:30.620Z,12.00
2023-06-07T07:49:02.629Z,7.60
2023-06-07T07:51:35.171Z,10.00
2023-06-07T07:54:07.633Z,9.60
2023-06-07T07:56:39.633Z,13.10
2023-06-07T07:59:11.861Z,11.30
2023-06-07T08:01:44.142Z,10.00
2023-06-07T08:04:16.356Z,8.30
2023-06-07T08:06:48.860Z,14.00
2023-06-07T08:09:21.323Z,16.70
2023-06-07T08:11:53.456Z,13.40
2023-06-07T08:14:25.999Z,15.80
2023-06-07T08:16:58.379Z,20.50
2023-06-07T08:19:30.355Z,16.90
2023-06-07T08:22:02.446Z,17.80
2023-06-07T08:24:34.456Z,15.80
2023-06-07T08:27:07.415Z,22.90
2023-06-07T08:29:39.387Z,15.20
2023-06-07T08:32:13.115Z,12.90
2023-06-07T08:34:45.153Z,15.40
2023-06-07T08:37:17.191Z,13.80
2023-06-07T08:39:49.340Z,15.10
2023-06-07T08:42:21.472Z,13.10
2023-06-07T08:44:53.583Z,13.20
2023-06-07T08:47:26.697Z,19.00
2023-06-07T08:49:59.491Z,21.70
2023-06-07T08:52:31.897Z,16.80
2023-06-07T08:55:08.356Z,15.30
2023-06-07T08:57:40.397Z,12.70
2023-06-07T09:00:14.175Z,17.10
2023-06-07T09:02:46.576Z,12.20
2023-06-07T09:05:19.516Z,12.80
2023-06-07T09:07:52.021Z,12.30
2023-06-07T09:10:26.863Z,12.70
2023-06-07T09:13:00.818Z,20.60
2023-06-07T09:15:34.314Z,23.80
2023-06-07T09:18:06.862Z,17.60
2023-06-07T09:20:39.623Z,18.30
2023-06-07T09:23:14.820Z,14.00
2023-06-07T09:25:47.148Z,10.30
2023-06-07T09:28:19.221Z,12.60
2023-06-07T09:30:57.252Z,13.80
2023-06-07T09:33:35.264Z,14.00
2023-06-07T09:36:09.390Z,11.60
2023-06-07T09:38:43.450Z,11.10
2023-06-07T09:41:16.145Z,13.60
2023-06-07T09:43:52.685Z,10.10
2023-06-07T09:46:24.911Z,12.30
2023-06-07T09:48:58.013Z,12.50
2023-06-07T09:51:30.767Z,11.40
2023-06-07T09:54:06.682Z,5.80
2023-06-07T09:56:40.744Z,9.80
2023-06-07T09:59:14.151Z,5.90
2023-06-07T10:01:47.262Z,10.60
2023-06-07T10:04:19.672Z,6.80
2023-06-07T10:06:52.699Z,8.30
2023-06-07T10:09:25.155Z,8.90
2023-06-07T10:11:57.998Z,8.00
2023-06-07T10:14:34.571Z,7.80
2023-06-07T10:17:08.734Z,14.60
2023-06-07T10:19:43.269Z,7.80
2023-06-07T10:22:17.919Z,10.90
2023-06-07T10:24:55.840Z,7.30
2023-06-07T10:27:28.141Z,7.20
2023-06-07T10:30:05.296Z,8.60
2023-06-07T10:32:38.461Z,5.90
2023-06-07T10:35:15.811Z,6.60
2023-06-07T10:37:52.143Z,6.90
2023-06-07T10:40:26.532Z,9.00
2023-06-07T10:42:59.419Z,8.60
2023-06-07T10:45:31.637Z,10.80
2023-06-07T10:48:29.428Z,5.80
2023-06-07T10:51:01.616Z,10.10
2023-06-07T10:53:57.298Z,10.70
2023-06-07T10:56:33.921Z,9.00
2023-06-07T10:59:25.096Z,5.00
2023-06-07T11:01:57.349Z,14.10
2023-06-07T11:04:58.947Z,5.20
2023-06-07T11:07:32.838Z,8.70
2023-06-07T11:10:42.295Z,5.60
2023-06-07T11:13:14.781Z,5.60
2023-06-07T11:15:47.132Z,6.70
2023-06-07T11:18:19.501Z,4.90
2023-06-07T11:20:53.182Z,11.20
2023-06-07T11:23:33.358Z,8.30
2023-06-07T11:26:12.703Z,10.90
2023-06-07T11:28:45.007Z,4.90
2023-06-07T11:31:17.135Z,10.80
2023-06-07T11:33:50.285Z,8.40
2023-06-07T11:36:22.699Z,6.20
2023-06-07T11:38:57.357Z,4.70
2023-06-07T11:41:29.853Z,6.10
2023-06-07T11:44:03.137Z,4.90
2023-06-07T11:46:37.278Z,8.50
2023-06-07T11:49:11.368Z,5.90
2023-06-07T11:51:44.937Z,13.00
2023-06-07T11:54:17.174Z,5.30
2023-06-07T11:56:49.147Z,5.50
2023-06-07T11:59:21.400Z,6.20
2023-06-07T12:01:57.038Z,5.20
2023-06-07T12:04:29.085Z,6.40
2023-06-07T12:07:01.029Z,7.70
2023-06-07T12:09:32.954Z,6.60
2023-06-07T12:12:05.129Z,5.70
2023-06-07T12:14:39.926Z,5.40
2023-06-07T12:17:12.920Z,8.20
2023-06-07T12:19:45.077Z,8.40
2023-06-07T12:22:17.495Z,5.10
2023-06-07T12:24:49.494Z,4.70
2023-06-07T12:27:22.308Z,9.10
2023-06-07T12:29:59.279Z,3.30
2023-06-07T12:32:32.962Z,5.00
2023-06-07T12:35:07.191Z,3.40
2023-06-07T12:37:39.703Z,3.80
2023-06-07T12:40:12.595Z,6.80
2023-06-07T12:42:44.551Z,4.00
2023-06-07T12:45:17.631Z,9.00
2023-06-07T12:47:49.923Z,7.00
2023-06-07T12:50:22.021Z,4.20
2023-06-07T12:52:54.473Z,4.70
2023-06-07T12:55:26.528Z,3.30
2023-06-07T13:09:22.828Z,5.20
2023-06-07T13:11:55.406Z,8.60
2023-06-07T13:14:28.722Z,5.10
2023-06-07T13:17:00.906Z,5.00
2023-06-07T13:19:33.120Z,7.50
2023-06-07T13:22:05.148Z,7.40
2023-06-07T13:24:37.568Z,6.90
2023-06-07T13:27:11.157Z,8.20
2023-06-07T13:29:43.502Z,5.10
2023-06-07T13:32:15.648Z,8.50
2023-06-07T13:34:47.710Z,9.90
2023-06-07T13:37:22.098Z,10.00
2023-06-07T13:39:54.009Z,10.20
2023-06-07T13:42:25.977Z,6.50
2023-06-07T13:44:57.922Z,6.20
2023-06-07T13:47:32.007Z,13.60
2023-06-07T13:50:06.665Z,9.60
2023-06-07T13:52:39.194Z,8.30
2023-06-07T13:55:12.481Z,9.70
2023-06-07T13:57:44.803Z,6.50
2023-06-07T14:00:19.578Z,6.40
2023-06-07T14:02:52.098Z,8.80
2023-06-07T14:05:24.671Z,5.00
2023-06-07T14:07:57.193Z,4.30
2023-06-07T14:10:29.568Z,2.90
2023-06-07T14:13:02.248Z,4.70
2023-06-07T14:15:34.131Z,6.80
2023-06-07T14:18:06.593Z,5.40
2023-06-07T14:20:38.962Z,6.50
2023-06-07T14:23:11.731Z,12.10
2023-06-07T14:25:43.735Z,10.90
2023-06-07T14:28:18.394Z,5.70
2023-06-07T14:30:52.169Z,8.50
2023-06-07T14:33:24.543Z,7.90
2023-06-07T14:35:56.869Z,6.80
2023-06-07T14:38:28.950Z,9.10
2023-06-07T14:41:01.606Z,12.10
2023-06-07T14:43:34.158Z,7.20
2023-06-07T14:46:06.111Z,4.30
2023-06-07T14:48:38.615Z,6.90
2023-06-07T14:51:10.853Z,5.10
2023-06-07T14:53:42.902Z,8.40
2023-06-07T14:56:14.928Z,7.30
2023-06-07T14:58:47.293Z,4.20
2023-06-07T15:01:19.509Z,6.80
2023-06-07T15:03:51.825Z,5.30
2023-06-07T15:06:23.988Z,3.30
2023-06-07T15:08:56.306Z,7.40
2023-06-07T15:11:29.190Z,4.80
2023-06-07T15:14:01.498Z,5.40
2023-06-07T15:16:33.675Z,7.90
2023-06-07T15:19:06.053Z,10.10
2023-06-07T15:21:38.616Z,10.00
2023-06-07T15:24:11.191Z,8.60
2023-06-07T15:26:43.484Z,5.30
2023-06-07T15:29:15.504Z,5.40
2023-06-07T15:31:47.687Z,10.20
2023-06-07T15:34:20.030Z,5.30
2023-06-07T15:36:52.265Z,5.30
2023-06-07T15:39:24.314Z,7.10
2023-06-07T15:41:56.426Z,5.80
2023-06-07T15:44:29.456Z,6.10
2023-06-07T15:47:02.410Z,4.70
2023-06-07T15:49:34.731Z,8.20
2023-06-07T15:52:07.477Z,8.90
2023-06-07T15:54:39.691Z,4.90
2023-06-07T15:57:12.700Z,6.60
2023-06-07T15:59:44.960Z,8.20
2023-06-07T16:02:19.859Z,6.20
2023-06-07T16:04:51.972Z,5.10
2023-06-07T16:07:24.906Z,4.30
2023-06-07T16:09:57.628Z,6.50
2023-06-07T16:12:29.831Z,7.50
2023-06-07T16:15:03.223Z,9.40
2023-06-07T16:17:35.376Z,5.00
2023-06-07T16:20:09.364Z,6.10
2023-06-07T16:22:41.267Z,5.60
2023-06-07T16:25:13.482Z,5.70
2023-06-07T16:27:45.542Z,5.00
2023-06-07T16:30:18.759Z,4.40
2023-06-07T16:32:51.778Z,4.40
2023-06-07T16:35:24.078Z,4.70
2023-06-07T16:37:56.232Z,5.60
2023-06-07T16:40:28.505Z,6.50
2023-06-07T16:43:00.646Z,3.80
2023-06-07T16:45:32.810Z,6.80
2023-06-07T16:48:04.937Z,5.00
2023-06-07T16:50:37.412Z,4.70
2023-06-07T16:53:09.662Z,5.00
2023-06-07T16:55:41.798Z,7.90
2023-06-07T16:58:14.064Z,10.50
2023-06-07T17:00:46.335Z,5.20
2023-06-07T17:03:19.778Z,6.30
2023-06-07T17:05:52.035Z,6.60
2023-06-07T17:08:23.939Z,6.40
2023-06-07T17:10:55.977Z,13.60
2023-06-07T17:13:28.192Z,7.50
2023-06-07T17:16:00.385Z,4.80
2023-06-07T17:18:32.658Z,5.20
2023-06-07T17:21:05.810Z,4.80
2023-06-07T17:23:37.866Z,7.80
2023-06-07T17:26:10.198Z,4.90
2023-06-07T17:28:42.137Z,4.50
2023-06-07T17:31:14.254Z,4.40
2023-06-07T17:33:46.749Z,6.60
2023-06-07T17:36:19.813Z,6.80
2023-06-07T17:38:52.425Z,4.70
2023-06-07T17:41:24.776Z,7.60
2023-06-07T17:43:59.541Z,9.70
2023-06-07T17:46:32.499Z,5.80
2023-06-07T17:49:04.643Z,4.30
2023-06-07T17:51:37.373Z,11.80
2023-06-07T17:54:09.398Z,5.90
2023-06-07T17:56:41.450Z,5.90
2023-06-07T17:59:13.617Z,6.30
2023-06-07T18:01:47.264Z,8.80
2023-06-07T18:04:19.621Z,8.20
2023-06-07T18:06:52.125Z,9.90
2023-06-07T18:09:24.081Z,6.30
2023-06-07T18:11:55.999Z,8.50
2023-06-07T18:14:28.036Z,10.30
2023-06-07T18:17:00.519Z,8.10
2023-06-07T18:19:32.528Z,6.10
2023-06-07T18:22:05.539Z,16.40
2023-06-07T18:24:38.177Z,7.10
2023-06-07T18:27:11.079Z,11.30
2023-06-07T18:29:43.065Z,9.70
2023-06-07T18:32:14.986Z,8.20
2023-06-07T18:34:47.033Z,7.20
2023-06-07T18:37:19.234Z,8.00
2023-06-07T18:39:51.333Z,6.10
2023-06-07T18:42:23.558Z,10.10
2023-06-07T18:44:55.724Z,7.20
2023-06-07T18:47:27.741Z,6.80
2023-06-07T18:50:00.462Z,7.00
2023-06-07T18:52:32.375Z,6.30
2023-06-07T18:55:06.699Z,7.90
2023-06-07T18:57:39.094Z,7.80
2023-06-07T19:00:13.221Z,7.00
2023-06-07T19:02:46.679Z,8.10
2023-06-07T19:05:19.607Z,6.10
2023-06-07T19:07:52.290Z,9.40
2023-06-07T19:10:24.854Z,7.00
2023-06-07T19:12:57.009Z,9.10
2023-06-07T19:15:29.822Z,7.60
2023-06-07T19:18:06.590Z,8.30
2023-06-07T19:20:40.537Z,9.30
2023-06-07T19:23:13.644Z,13.10
2023-06-07T19:25:46.182Z,12.40
2023-06-07T19:28:18.159Z,10.20
2023-06-07T19:30:50.197Z,8.50
2023-06-07T19:33:22.332Z,9.70
2023-06-07T19:35:54.458Z,11.20
2023-06-07T19:38:26.417Z,6.50
2023-06-07T19:40:58.462Z,11.50
2023-06-07T19:43:31.102Z,8.30
2023-06-07T19:46:02.975Z,7.00
2023-06-07T19:48:34.985Z,9.10
2023-06-07T19:51:08.727Z,7.60
2023-06-07T19:53:41.042Z,8.20
2023-06-07T19:56:13.083Z,8.80
2023-06-07T19:58:45.334Z,10.40
2023-06-07T20:01:17.424Z,5.30
2023-06-07T20:03:49.501Z,6.80
2023-06-07T20:06:21.663Z,6.50
2023-06-07T20:08:53.617Z,5.60
2023-06-07T20:11:26.674Z,6.10
2023-06-07T20:13:58.805Z,4.30
2023-06-07T20:16:30.924Z,7.90
2023-06-07T20:19:02.892Z,7.40
2023-06-07T20:21:34.761Z,7.00
2023-06-07T20:24:07.751Z,8.60
2023-06-07T20:26:39.776Z,10.00
2023-06-07T20:29:14.758Z,3.90
2023-06-07T20:31:47.870Z,6.50
2023-06-07T20:34:20.604Z,5.00
2023-06-07T20:36:53.825Z,5.60
2023-06-07T20:39:26.053Z,11.60
2023-06-07T20:41:59.241Z,7.30
2023-06-07T20:44:43.990Z,4.40
2023-06-07T20:47:23.872Z,6.10
2023-06-07T20:49:55.855Z,5.20
2023-06-07T20:52:28.308Z,4.50
2023-06-07T20:55:00.483Z,9.90
2023-06-07T20:57:32.531Z,5.90
2023-06-07T21:00:07.123Z,6.80
2023-06-07T21:02:39.858Z,10.10
2023-06-07T21:05:12.470Z,5.50
2023-06-07T21:07:44.584Z,5.00
2023-06-07T21:10:16.998Z,9.30
2023-06-07T21:12:49.144Z,3.90
2023-06-07T21:15:21.618Z,3.70
2023-06-07T21:17:53.674Z,6.30
2023-06-07T21:20:25.783Z,3.60
2023-06-07T21:22:57.901Z,5.20
2023-06-07T21:25:30.077Z,4.30
2023-06-07T21:28:02.999Z,4.90
2023-06-07T21:30:35.044Z,4.10
2023-06-07T21:33:07.443Z,3.90
2023-06-07T21:35:39.390Z,3.60
2023-06-07T21:38:11.474Z,3.50
2023-06-07T21:40:43.466Z,3.80
2023-06-07T21:43:15.641Z,3.70
2023-06-07T21:45:47.595Z,4.60
2023-06-07T21:48:19.937Z,4.50
2023-06-07T21:50:52.064Z,4.20
2023-06-07T21:53:24.051Z,9.60
2023-06-07T21:55:56.195Z,4.60
2023-06-07T21:58:28.347Z,6.10
2023-06-07T22:01:00.824Z,3.50
2023-06-07T22:03:34.439Z,3.50
2023-06-07T22:06:06.624Z,4.70
2023-06-07T22:08:38.570Z,7.00
2023-06-07T22:11:10.796Z,5.80
2023-06-07T22:13:43.246Z,3.70
2023-06-07T22:16:15.372Z,4.00
2023-06-07T22:18:48.775Z,5.70
2023-06-07T22:21:24.439Z,4.80
2023-06-07T22:23:57.668Z,5.40
2023-06-07T22:26:30.523Z,5.00
2023-06-07T22:29:02.757Z,4.80
2023-06-07T22:31:34.811Z,6.80
2023-06-07T22:34:06.767Z,6.10
2023-06-07T22:36:41.868Z,5.60
2023-06-07T22:39:14.661Z,8.30
2023-06-07T22:41:46.709Z,8.20
2023-06-07T22:44:18.825Z,5.60
2023-06-07T22:46:51.320Z,10.70
2023-06-07T22:49:23.421Z,6.60
2023-06-07T22:51:55.473Z,7.00
2023-06-07T22:54:29.039Z,7.80
2023-06-07T22:57:01.133Z,7.20
2023-06-07T22:59:33.389Z,10.80
2023-06-07T23:02:06.125Z,5.00
2023-06-07T23:04:38.558Z,10.00
2023-06-07T23:07:10.662Z,10.60
2023-06-07T23:09:46.064Z,6.20
2023-06-07T23:12:18.231Z,8.00
2023-06-07T23:14:51.630Z,4.50
2023-06-07T23:17:24.293Z,4.30
2023-06-07T23:19:56.464Z,5.90
2023-06-07T23:22:28.638Z,4.20
2023-06-07T23:25:00.636Z,5.70
2023-06-07T23:27:32.894Z,5.90
2023-06-07T23:30:05.673Z,6.50
2023-06-07T23:32:38.217Z,8.20
2023-06-07T23:35:11.225Z,5.70
2023-06-07T23:37:43.466Z,5.60
2023-06-07T23:40:17.119Z,7.20
2023-06-07T23:42:52.910Z,4.10
2023-06-07T23:45:25.686Z,5.20
2023-06-07T23:47:57.870Z,11.00
2023-06-07T23:50:29.934Z,6.50
2023-06-07T23:53:04.693Z,8.80
2023-06-07T23:55:36.808Z,17.50
2023-06-07T23:58:08.936Z,16.20
